• Join FlightAware (Why Join?)
  • Login
  • US Flag 
07:39AM EDT


 

Airport Tracker/Info


-or-


 

Live Flight TrackerFlight Track Log ✈ FLG4099 ✈ 03-May-2013 ✈ KBTV - KDTW

Flight Track Log - Related Links

Times and Time Zones

All times are in EDT time to prevent confusion due to time zone crossing. See the FLG4099 flight status page for this flight to view local times or setup timezone preferences in your user account.

Time Position Orientation Groundspeed Altitude Reporting Facility
EDT Latitude Longitude Course Direction KTS MPH feet Rate Location/Type
06:17AM 44.3974 -73.5566 253° West  Level FlightAware Approximate
06:17AM 44.3814 -73.2331 256° West 265 305 6,600  Level Boston Center
06:18AM 44.3687 -73.6904 253° West  Level FlightAware Approximate
06:18AM 44.3661 -73.3431 259° West 282 325 9,500  Level Boston Center
06:19AM 44.3486 -73.8270 259° West  Level FlightAware Approximate
06:19AM 44.3506 -73.4592 259° West 302 348 11,200  Level Boston Center
06:20AM 44.3278 -73.9634 256° West  Level FlightAware Approximate
06:20AM 44.3306 -73.5981 259° West 348 400 12,200  Level Boston Center
06:21AM 44.3030 -74.0985 256° West  Level FlightAware Approximate
06:21AM 44.3100 -73.7514 259° West 393 452 13,400  Level Boston Center
06:22AM 44.2780 -74.2334 256° West  Level FlightAware Approximate
06:22AM 44.2806 -73.9422 258° West 415 478 15,300  Level Boston Center
06:23AM 44.2575 -74.1039 259° West 421 484 16,800 1,380 Climbing Boston Center
06:24AM 44.2344 -74.2597 258° West 421 484 18,100 1,200 Climbing Boston Center
06:25AM 44.2108 -74.4211 259° West 426 490 19,200 1,200 Climbing Boston Center
06:26AM 44.1850 -74.5825 257° West 431 496 20,600 1,260 Climbing Boston Center
06:27AM 44.1633 -74.7439 259° West 431 496 21,800 1,200 Climbing Boston Center
06:28AM 44.1414 -74.8906 258° West 431 496 23,000 1,020 Climbing Boston Center
06:29AM 44.1172 -75.0486 258° West 431 496 23,900 840 Climbing Boston Center
06:30AM 44.0925 -75.2122 258° West 431 496 24,700 780 Climbing Boston Center
06:31AM 44.0656 -75.3758 257° West 431 496 25,500 780 Climbing Boston Center
06:32AM 44.0403 -75.5422 258° West 431 496 26,300 780 Climbing Boston Center
06:33AM 44.0150 -75.7053 258° West 431 496 27,100 600 Climbing Boston Center
06:34AM 43.9872 -75.8683 257° West 436 502 27,600 420 Climbing Boston Center
06:35AM 43.9614 -76.0342 258° West 436 502 28,000 180 Climbing Boston Center
06:36AM 43.9517 -76.2069 266° West 446 513 28,000  Level Boston Center
06:37AM 43.9478 -76.3825 268° West 446 513 28,000  Level Boston Center
06:38AM 43.9417 -76.5553 267° West 446 513 28,000  Level Boston Center
06:39AM 43.9333 -76.8000 267° West 460 529 28,000  Level Toronto Center
06:40AM 43.9167 -76.9667 262° West 460 529 28,000  Level Toronto Center
06:41AM 43.9000 -77.1500 263° West 460 529 28,000  Level Toronto Center
06:42AM 43.9000 -77.3167 270° West 460 529 28,000  Level Toronto Center
06:43AM 43.9000 -77.5000 270° West 460 529 28,000  Level Toronto Center
06:44AM 43.9000 -77.6833 270° West 460 529 28,000  Level Toronto Center
06:45AM 43.8833 -77.8500 262° West 460 529 28,000  Level Toronto Center
06:46AM 43.8667 -78.0333 263° West 460 529 28,000  Level Toronto Center
06:47AM 43.8667 -78.2167 270° West 460 529 28,000  Level Toronto Center
06:48AM 43.8500 -78.3833 262° West 460 529 28,000  Level Toronto Center
06:49AM 43.8667 -78.5667 277° West 460 529 28,000  Level Toronto Center
06:50AM 43.8500 -78.7500 263° West 460 529 28,000  Level Toronto Center
06:51AM 43.8500 -78.9333 270° West 460 529 28,000  Level Toronto Center
06:52AM 43.8333 -79.1000 262° West 460 529 28,000  Level Toronto Center
06:53AM 43.7667 -79.2667 241° Southwest 460 529 28,000  Level Toronto Center
06:54AM 43.6833 -79.4000 229° Southwest 460 529 28,000  Level Toronto Center
06:55AM 43.6000 -79.5167 225° Southwest 460 529 28,000  Level Toronto Center
06:56AM 43.5167 -79.6500 229° Southwest 470 541 28,000  Level Toronto Center
06:57AM 43.4333 -79.8000 233° Southwest 460 529 28,000  Level Toronto Center
06:58AM 43.3500 -79.9000 221° Southwest 460 529 28,000  Level Toronto Center
06:59AM 43.2667 -80.0500 233° Southwest 460 529 28,000 -120 Level Toronto Center
07:00AM 43.1667 -80.1833 224° Southwest 460 529 27,800 -840 Descending Toronto Center
07:01AM 43.0833 -80.3167 229° Southwest 460 529 26,400 -1,440 Descending Toronto Center
07:02AM 43.0000 -80.4333 226° Southwest 460 529 25,000 -1,500 Descending Toronto Center
07:03AM 42.9000 -80.5667 224° Southwest 470 541 23,400 -1,020 Descending Toronto Center
07:04AM 42.8333 -80.7000 236° Southwest 460 529 23,000 -240 Descending Toronto Center
07:05AM 42.7167 -80.8167 216° Southwest 460 529 23,000  Level Toronto Center
07:07AM 42.6906 -81.0350 261° West 445 512 23,000  Level Cleveland Center
07:07AM 42.6692 -81.2017 260° West 450 518 23,000  Level Cleveland Center
07:08AM 42.6514 -81.3764 262° West 465 535 23,000  Level Cleveland Center
07:10AM 42.6311 -81.5456 261° West 465 535 23,000 -900 Level Cleveland Center
07:10AM 42.6111 -81.7058 260° West 455 524 21,200 -1,860 Descending Cleveland Center
07:11AM 42.5928 -81.8494 260° West 442 509 19,400 -1,860 Descending Cleveland Center
07:13AM 42.5742 -82.0097 261° West 437 503 17,500 -2,100 Descending Cleveland Center
07:13AM 42.5536 -82.1644 260° West 430 495 15,200 -2,520 Descending Cleveland Center
07:14AM 42.5414 -82.2797 262° West 400 460 13,300 -2,220 Descending Cleveland Center
07:14AM 42.5367 -82.3133 259° West 419 482 13,000 -1,020 Descending Cleveland Center
07:16AM 42.5181 -82.4453 259° West 395 455 12,000 -540 Descending Cleveland Center
07:16AM 42.5036 -82.5547 260° West 344 396 12,000 -540 Level Cleveland Center
07:17AM 42.4686 -82.6519 244° Southwest 309 356 11,000 -1,260 Descending Cleveland Center
07:19AM 42.4336 -82.7522 245° Southwest 297 342 9,500 -1,200 Descending Cleveland Center
07:19AM 42.4192 -82.8472 258° West 283 326 8,700 -1,260 Descending Cleveland Center
07:20AM 42.4528 -82.9331 298° West 246 283 7,100 -1,380 Descending Cleveland Center
07:21AM 42.4656 -83.0178 282° West 232 267 6,000 -720 Descending Cleveland Center
07:22AM 42.4519 -83.0792 253° West 187 215 5,700 -720 Descending Cleveland Center
07:23AM 42.4278 -83.1375 241° Southwest 176 203 4,600 -900 Descending Cleveland Center
07:25AM 42.4011 -83.2011 240° Southwest 167 192 3,800 -720 Descending Cleveland Center
07:26AM 42.3608 -83.2331 210° Southwest 169 194 3,100 -600 Descending Cleveland Center
07:27AM 42.3164 -83.2622 206° Southwest 173 199 2,600 -540 Descending Cleveland Center